Time;durP1;ratioP1;P1;durP2;ratioP2;P2;SDS_P1;SDS_P2;PMS_P1;PMS_P2;Temp;Humidity;BMP_temperature;BMP_pressure;BME280_temperature;BME280_humidity;BME280_pressure;Samples;Min_cycle;Max_cycle;Signal;HPM_P1;HPM_P2
2023/08/28 00:00:37;;;;;;;5.63;1.88;;;13.10;99.90;;;;;;5044974;28;20048;-65
2023/08/28 00:03:03;;;;;;;6.47;2.00;;;13.10;99.90;;;;;;5087503;28;20061;-64
2023/08/28 00:05:32;;;;;;;9.02;2.25;;;13.10;99.90;;;;;;5050056;28;20443;-66
2023/08/28 00:07:58;;;;;;;6.38;2.20;;;13.10;99.90;;;;;;5029745;28;20051;-66
2023/08/28 00:10:24;;;;;;;7.05;2.08;;;13.10;99.90;;;;;;5046357;28;20037;-64
2023/08/28 00:12:50;;;;;;;7.35;2.25;;;13.10;99.90;;;;;;5045836;28;20041;-67
2023/08/28 00:15:16;;;;;;;5.25;2.05;;;13.10;99.90;;;;;;5047414;28;20041;-67
2023/08/28 00:17:41;;;;;;;7.32;2.38;;;13.10;99.90;;;;;;5046240;28;20064;-67
2023/08/28 00:20:08;;;;;;;7.75;2.28;;;13.10;99.90;;;;;;5057785;28;20289;-68
2023/08/28 00:22:37;;;;;;;6.20;2.30;;;13.10;99.90;;;;;;5065972;28;20043;-64
2023/08/28 00:25:04;;;;;;;7.60;2.40;;;13.10;99.90;;;;;;5065802;28;20166;-64
2023/08/28 00:27:30;;;;;;;7.78;2.30;;;13.10;99.90;;;;;;5061795;28;20033;-67
2023/08/28 00:29:59;;;;;;;6.50;1.90;;;13.10;99.90;;;;;;5046099;28;20048;-65
2023/08/28 00:32:26;;;;;;;5.57;2.30;;;13.10;99.90;;;;;;5038113;28;20046;-64
2023/08/28 00:34:52;;;;;;;8.43;2.10;;;13.20;99.90;;;;;;5081481;28;20246;-67
2023/08/28 00:37:17;;;;;;;9.43;2.20;;;13.10;99.90;;;;;;5066105;28;20052;-66
2023/08/28 00:39:43;;;;;;;6.82;2.28;;;13.10;99.90;;;;;;5064382;28;20055;-68
2023/08/28 00:42:12;;;;;;;9.68;2.25;;;13.20;99.90;;;;;;5046964;28;20539;-67
2023/08/28 00:44:37;;;;;;;5.93;2.33;;;13.20;99.90;;;;;;5047382;28;20043;-68
2023/08/28 00:47:05;;;;;;;8.35;2.15;;;13.20;99.90;;;;;;5046028;28;20480;-66
2023/08/28 00:49:32;;;;;;;7.03;2.13;;;13.20;99.90;;;;;;5053539;28;20043;-63
2023/08/28 00:51:58;;;;;;;6.57;2.20;;;13.20;99.90;;;;;;5066361;28;20399;-66
2023/08/28 00:54:24;;;;;;;7.78;2.33;;;13.20;99.90;;;;;;5055337;28;20029;-64
2023/08/28 00:56:51;;;;;;;6.57;2.03;;;13.20;99.90;;;;;;5045388;28;20048;-64
2023/08/28 00:59:17;;;;;;;10.75;2.28;;;13.20;99.90;;;;;;5045654;28;20404;-66
2023/08/28 01:01:44;;;;;;;8.50;2.30;;;13.20;99.90;;;;;;5047169;28;20064;-64
2023/08/28 01:04:09;;;;;;;8.55;2.30;;;13.20;99.90;;;;;;5045241;28;20126;-66
2023/08/28 01:07:06;;;;;;;9.32;2.05;;;13.20;99.90;;;;;;5081297;28;20145;-66
2023/08/28 01:09:40;;;;;;;6.68;2.40;;;13.20;99.90;;;;;;5030996;28;20084;-64
2023/08/28 01:12:28;;;;;;;6.05;2.42;;;13.20;99.90;;;;;;5046494;28;20039;-66
2023/08/28 01:15:09;;;;;;;9.93;2.35;;;13.10;99.90;;;;;;5064444;28;20085;-65
2023/08/28 01:17:38;;;;;;;7.88;2.30;;;13.10;99.90;;;;;;5065078;28;20434;-67
2023/08/28 01:20:05;;;;;;;8.95;2.38;;;13.10;99.90;;;;;;5050162;28;20138;-64
2023/08/28 01:22:59;;;;;;;6.70;2.50;;;13.00;99.90;;;;;;5046352;28;20349;-65
2023/08/28 01:25:26;;;;;;;7.72;2.08;;;13.00;99.90;;;;;;5044622;28;20037;-64
2023/08/28 01:27:52;;;;;;;7.60;2.53;;;13.00;99.90;;;;;;5045725;28;20447;-63
2023/08/28 01:30:18;;;;;;;7.93;2.42;;;13.00;99.90;;;;;;5065020;28;20097;-64
2023/08/28 01:32:45;;;;;;;7.75;2.50;;;13.00;99.90;;;;;;5042799;28;20042;-63
2023/08/28 01:35:20;;;;;;;8.38;2.28;;;13.00;99.90;;;;;;5086044;28;20048;-64
2023/08/28 01:38:10;;;;;;;6.75;2.25;;;13.00;99.90;;;;;;5028104;28;20052;-64
2023/08/28 01:40:51;;;;;;;9.60;2.20;;;13.10;99.90;;;;;;5044806;28;20127;-62
2023/08/28 01:43:21;;;;;;;9.15;2.40;;;13.10;99.90;;;;;;5044747;28;20091;-65
2023/08/28 01:45:47;;;;;;;5.47;2.13;;;13.10;99.90;;;;;;5045886;28;20051;-64
2023/08/28 01:48:13;;;;;;;6.72;2.00;;;13.10;99.90;;;;;;5024787;28;20041;-66
2023/08/28 01:50:39;;;;;;;7.93;2.28;;;13.10;99.90;;;;;;5051793;28;20582;-66
2023/08/28 01:53:04;;;;;;;6.30;2.00;;;13.10;99.90;;;;;;5044342;28;20044;-67
2023/08/28 01:55:45;;;;;;;7.10;2.47;;;13.10;99.90;;;;;;5045699;28;20684;-66
2023/08/28 01:58:14;;;;;;;6.32;2.22;;;13.10;99.90;;;;;;5044768;28;20053;-64
2023/08/28 02:00:40;;;;;;;4.88;2.00;;;13.00;99.90;;;;;;5064472;28;20044;-65
2023/08/28 02:03:06;;;;;;;9.38;2.30;;;13.00;99.90;;;;;;5064190;28;20102;-64
2023/08/28 02:05:32;;;;;;;5.68;2.13;;;13.00;99.90;;;;;;5060411;28;20044;-64
2023/08/28 02:07:59;;;;;;;13.45;2.58;;;12.90;99.90;;;;;;5059751;28;20037;-64
2023/08/28 02:10:24;;;;;;;6.65;2.42;;;12.90;99.90;;;;;;5065659;28;20036;-67
2023/08/28 02:12:50;;;;;;;7.95;2.85;;;12.90;99.90;;;;;;5050861;28;20051;-66
2023/08/28 02:15:15;;;;;;;6.18;2.45;;;12.80;99.90;;;;;;5045653;28;20051;-66
2023/08/28 02:17:41;;;;;;;7.72;2.78;;;12.80;99.90;;;;;;5045265;28;20135;-64
2023/08/28 02:20:09;;;;;;;7.13;2.97;;;12.70;99.90;;;;;;5040463;28;20091;-67
2023/08/28 02:22:35;;;;;;;9.40;2.80;;;12.70;99.90;;;;;;5043725;28;20048;-66
2023/08/28 02:25:00;;;;;;;6.32;2.45;;;12.70;99.90;;;;;;5044827;28;20508;-64
2023/08/28 02:27:26;;;;;;;6.20;2.58;;;12.70;99.90;;;;;;5065315;28;20067;-66
2023/08/28 02:29:52;;;;;;;6.82;3.10;;;12.60;99.90;;;;;;5063812;28;20083;-64
2023/08/28 02:32:17;;;;;;;7.93;2.90;;;12.60;99.90;;;;;;5055963;28;20040;-66
2023/08/28 02:34:43;;;;;;;8.23;2.75;;;12.60;99.90;;;;;;5045420;28;20036;-64
2023/08/28 02:37:09;;;;;;;7.70;2.50;;;12.50;99.90;;;;;;5063660;28;20041;-64
2023/08/28 02:39:34;;;;;;;8.75;2.80;;;12.50;99.90;;;;;;5047437;28;20036;-65
2023/08/28 02:42:00;;;;;;;6.40;2.65;;;12.50;99.90;;;;;;5046787;28;20212;-64
2023/08/28 02:44:25;;;;;;;8.52;3.05;;;12.50;99.90;;;;;;5061830;28;20036;-64
2023/08/28 02:46:51;;;;;;;10.13;2.67;;;12.40;99.90;;;;;;5065426;28;20042;-62
2023/08/28 02:49:17;;;;;;;7.28;2.40;;;12.40;99.90;;;;;;5039597;28;20083;-65
2023/08/28 02:51:43;;;;;;;9.57;3.58;;;12.40;99.90;;;;;;5059676;28;20127;-64
2023/08/28 02:54:08;;;;;;;5.18;2.80;;;12.40;99.90;;;;;;5063693;28;20131;-63
2023/08/28 02:56:38;;;;;;;7.43;3.00;;;12.40;99.90;;;;;;5057472;28;20045;-63
2023/08/28 02:59:04;;;;;;;6.40;2.92;;;12.40;99.90;;;;;;5043587;28;20450;-64
2023/08/28 03:01:34;;;;;;;11.32;2.92;;;12.40;99.90;;;;;;5047838;28;20045;-65
2023/08/28 03:04:07;;;;;;;9.10;3.17;;;12.40;99.90;;;;;;5030517;28;20053;-65
2023/08/28 03:06:37;;;;;;;7.25;3.40;;;12.40;99.90;;;;;;5042881;28;20040;-63
2023/08/28 03:09:04;;;;;;;9.00;3.25;;;12.40;99.90;;;;;;5045065;28;20037;-62
2023/08/28 03:11:29;;;;;;;8.52;3.58;;;12.40;99.90;;;;;;5038340;28;20033;-63
2023/08/28 03:13:55;;;;;;;9.07;3.72;;;12.40;99.90;;;;;;5042758;28;20497;-64
2023/08/28 03:16:21;;;;;;;8.38;3.25;;;12.40;99.90;;;;;;5043242;28;20049;-62
2023/08/28 03:18:47;;;;;;;11.82;3.22;;;12.40;99.90;;;;;;5028111;28;20056;-63
2023/08/28 03:21:12;;;;;;;9.00;3.50;;;12.40;99.90;;;;;;5052102;28;20198;-62
2023/08/28 03:23:38;;;;;;;10.98;3.60;;;12.40;99.90;;;;;;5043625;28;20475;-66
2023/08/28 03:26:03;;;;;;;8.75;3.45;;;12.40;99.90;;;;;;5044793;28;20044;-64
2023/08/28 03:28:29;;;;;;;10.13;3.80;;;12.40;99.90;;;;;;5043194;28;20132;-65
2023/08/28 03:30:57;;;;;;;8.88;3.67;;;12.40;99.90;;;;;;5043469;28;20048;-62
2023/08/28 03:33:22;;;;;;;7.72;3.67;;;12.40;99.90;;;;;;5042960;28;20041;-62
2023/08/28 03:35:48;;;;;;;8.50;3.85;;;12.30;99.90;;;;;;5058469;28;20396;-65
2023/08/28 03:38:14;;;;;;;8.75;3.60;;;12.40;99.90;;;;;;5065867;28;20083;-65
2023/08/28 03:40:39;;;;;;;7.25;3.70;;;12.40;99.90;;;;;;5068329;28;20055;-64
2023/08/28 03:43:05;;;;;;;8.10;3.88;;;12.30;99.90;;;;;;5056812;28;20049;-65
2023/08/28 03:45:30;;;;;;;8.35;3.90;;;12.40;99.90;;;;;;5048428;28;20041;-64
2023/08/28 03:47:56;;;;;;;16.38;4.25;;;12.40;99.90;;;;;;5048562;28;20040;-63
2023/08/28 03:50:22;;;;;;;10.07;4.03;;;12.30;99.90;;;;;;5059655;28;20491;-65
2023/08/28 03:52:48;;;;;;;8.10;3.85;;;12.30;99.90;;;;;;5068181;28;20091;-64
2023/08/28 03:55:13;;;;;;;9.65;4.03;;;12.30;99.90;;;;;;5054641;28;20053;-63
2023/08/28 03:57:39;;;;;;;11.05;3.88;;;12.30;99.90;;;;;;5047696;28;20045;-65
2023/08/28 04:00:10;;;;;;;14.32;3.88;;;12.40;99.90;;;;;;5046777;28;20191;-63
2023/08/28 04:02:37;;;;;;;8.25;3.97;;;12.30;99.90;;;;;;5045746;28;20175;-63
2023/08/28 04:05:04;;;;;;;11.70;4.40;;;12.40;99.90;;;;;;5053717;28;20053;-63
2023/08/28 04:07:31;;;;;;;9.48;3.97;;;12.30;99.90;;;;;;5080128;28;20476;-66
2023/08/28 04:09:57;;;;;;;9.52;3.90;;;12.30;99.90;;;;;;5048254;28;20051;-66
2023/08/28 04:12:23;;;;;;;12.25;4.22;;;12.40;99.90;;;;;;5046301;28;20546;-66
2023/08/28 04:14:49;;;;;;;8.45;3.92;;;12.30;99.90;;;;;;5041655;28;20076;-64
2023/08/28 04:17:14;;;;;;;10.80;4.10;;;12.30;99.90;;;;;;5046242;28;20041;-68
2023/08/28 04:19:40;;;;;;;9.23;4.45;;;12.40;99.90;;;;;;5046038;28;20122;-66
2023/08/28 04:22:06;;;;;;;10.23;4.47;;;12.40;99.90;;;;;;5029710;28;20106;-67
2023/08/28 04:24:32;;;;;;;10.43;4.38;;;12.30;99.90;;;;;;5029456;28;20055;-67
2023/08/28 04:26:57;;;;;;;11.38;4.75;;;12.30;99.90;;;;;;5056080;28;20098;-64
2023/08/28 04:29:23;;;;;;;12.10;4.15;;;12.30;99.90;;;;;;5067665;28;20086;-62
2023/08/28 04:31:48;;;;;;;9.13;4.53;;;12.40;99.90;;;;;;5063427;28;20045;-68
2023/08/28 04:34:17;;;;;;;10.05;4.50;;;12.30;99.90;;;;;;5047018;28;20384;-65
2023/08/28 04:36:42;;;;;;;8.95;4.55;;;12.30;99.90;;;;;;5062958;28;20046;-64
2023/08/28 04:39:08;;;;;;;10.00;4.60;;;12.30;99.90;;;;;;5049351;28;20040;-64
2023/08/28 04:41:33;;;;;;;8.98;4.65;;;12.30;99.90;;;;;;5067252;28;20358;-63
2023/08/28 04:43:59;;;;;;;10.05;4.40;;;12.20;99.90;;;;;;5049421;28;20044;-65
2023/08/28 04:46:25;;;;;;;12.48;4.15;;;12.20;99.90;;;;;;5045974;28;20079;-63
2023/08/28 04:48:51;;;;;;;8.93;4.38;;;12.20;99.90;;;;;;5048186;28;20025;-64
2023/08/28 04:51:17;;;;;;;8.55;3.72;;;12.30;99.90;;;;;;5052887;28;20566;-67
2023/08/28 04:53:42;;;;;;;10.32;3.90;;;12.30;99.90;;;;;;5045455;28;20051;-65
2023/08/28 04:56:08;;;;;;;12.82;3.95;;;12.30;99.90;;;;;;5051147;28;20079;-66
2023/08/28 04:58:34;;;;;;;9.60;4.05;;;12.40;99.90;;;;;;5034561;28;20045;-63
2023/08/28 05:01:01;;;;;;;11.68;3.88;;;12.40;99.90;;;;;;5027207;28;20045;-64
2023/08/28 05:03:26;;;;;;;6.95;3.50;;;12.50;99.90;;;;;;5025115;28;20050;-65
2023/08/28 05:05:52;;;;;;;6.30;3.30;;;12.60;99.90;;;;;;5051866;28;20111;-64
2023/08/28 05:08:18;;;;;;;8.38;3.55;;;12.70;99.90;;;;;;5079148;28;20497;-65
2023/08/28 05:10:43;;;;;;;6.65;3.10;;;12.80;99.90;;;;;;5039833;28;20496;-64
2023/08/28 05:13:09;;;;;;;8.52;3.05;;;13.00;99.90;;;;;;5065193;28;20101;-65
2023/08/28 05:15:35;;;;;;;7.32;3.33;;;13.10;99.90;;;;;;5066754;28;20071;-65
2023/08/28 05:18:01;;;;;;;8.20;3.03;;;13.20;99.90;;;;;;5059816;28;20040;-66
2023/08/28 05:20:28;;;;;;;6.03;2.63;;;13.30;99.90;;;;;;5087116;28;20537;-65
2023/08/28 05:22:54;;;;;;;8.35;2.42;;;13.50;99.90;;;;;;5064744;28;20048;-65
2023/08/28 05:25:20;;;;;;;7.97;2.60;;;13.50;99.90;;;;;;5065078;28;20052;-65
2023/08/28 05:27:46;;;;;;;6.63;2.60;;;13.70;99.90;;;;;;5048596;28;20128;-64
2023/08/28 05:30:12;;;;;;;7.15;2.55;;;13.80;99.90;;;;;;5047957;28;20119;-63
2023/08/28 05:32:37;;;;;;;6.15;2.33;;;14.00;99.90;;;;;;5046079;28;20111;-62
2023/08/28 05:35:04;;;;;;;6.05;2.30;;;14.10;99.90;;;;;;5034733;28;20102;-62
2023/08/28 05:37:29;;;;;;;5.90;2.20;;;14.30;99.90;;;;;;5028235;28;20052;-64
2023/08/28 05:39:55;;;;;;;6.10;2.55;;;14.40;99.90;;;;;;5045224;28;20550;-65
2023/08/28 05:42:20;;;;;;;7.95;2.40;;;14.40;99.90;;;;;;5028546;28;20113;-66
2023/08/28 05:44:46;;;;;;;6.95;2.55;;;14.50;99.90;;;;;;5048214;28;20123;-63
2023/08/28 05:47:12;;;;;;;6.63;2.10;;;14.60;99.90;;;;;;5065909;28;20028;-65
2023/08/28 05:49:37;;;;;;;6.90;2.50;;;14.70;99.90;;;;;;5056911;28;20037;-66
2023/08/28 05:52:04;;;;;;;8.73;2.65;;;14.80;99.90;;;;;;5062982;28;20067;-66
2023/08/28 05:54:30;;;;;;;5.75;2.15;;;14.80;99.90;;;;;;5064709;28;20450;-67
2023/08/28 05:56:55;;;;;;;5.22;2.47;;;14.90;99.90;;;;;;5059481;28;20095;-63
2023/08/28 05:59:21;;;;;;;6.15;2.60;;;14.90;99.90;;;;;;5038316;28;20128;-64
2023/08/28 06:01:47;;;;;;;6.57;2.20;;;15.00;99.90;;;;;;5044254;28;20467;-69
2023/08/28 06:04:12;;;;;;;6.07;2.60;;;15.00;99.90;;;;;;5049030;28;20465;-63
2023/08/28 06:06:38;;;;;;;5.60;2.63;;;15.00;99.90;;;;;;5062695;28;20044;-62
2023/08/28 06:09:07;;;;;;;6.75;2.70;;;15.10;99.90;;;;;;5064440;28;20408;-62
2023/08/28 06:11:33;;;;;;;5.55;2.58;;;15.10;99.90;;;;;;5093717;28;20143;-66
2023/08/28 06:13:59;;;;;;;5.80;2.47;;;15.10;99.90;;;;;;5044171;28;20437;-64
2023/08/28 06:16:25;;;;;;;6.60;2.58;;;15.20;99.90;;;;;;5045386;28;20119;-67
2023/08/28 06:18:51;;;;;;;7.22;2.72;;;15.20;99.90;;;;;;5045029;28;20131;-64
2023/08/28 06:21:16;;;;;;;6.93;2.38;;;15.30;99.90;;;;;;5045079;28;20139;-63
2023/08/28 06:23:42;;;;;;;6.50;2.60;;;15.40;99.90;;;;;;5044206;28;20464;-64
2023/08/28 06:26:08;;;;;;;5.65;2.40;;;15.40;99.90;;;;;;5039924;28;20594;-67
2023/08/28 06:28:34;;;;;;;6.40;2.53;;;15.50;99.90;;;;;;5063842;28;20047;-63
2023/08/28 06:31:02;;;;;;;6.32;2.35;;;15.50;99.90;;;;;;5064121;28;20129;-67
2023/08/28 06:33:27;;;;;;;6.93;2.45;;;15.60;99.90;;;;;;5045784;28;20064;-66
2023/08/28 06:35:53;;;;;;;9.00;3.10;;;15.60;99.90;;;;;;5053277;28;20523;-68
2023/08/28 06:38:19;;;;;;;7.13;2.67;;;15.60;99.90;;;;;;5063730;28;20040;-63
2023/08/28 06:40:51;;;;;;;6.22;2.50;;;15.60;99.90;;;;;;5063652;28;20044;-68
2023/08/28 06:43:17;;;;;;;7.78;2.40;;;15.70;99.90;;;;;;5023498;28;20051;-65
2023/08/28 06:45:45;;;;;;;6.10;2.50;;;15.70;99.90;;;;;;5023794;28;20048;-63
2023/08/28 06:48:10;;;;;;;7.88;2.30;;;15.80;99.90;;;;;;5042279;28;20515;-64
2023/08/28 06:50:36;;;;;;;6.75;2.50;;;15.80;99.90;;;;;;5053505;28;20033;-62
2023/08/28 06:53:02;;;;;;;5.28;2.00;;;15.80;99.90;;;;;;5043033;28;20459;-62
2023/08/28 06:55:28;;;;;;;7.03;2.00;;;15.90;99.90;;;;;;5045561;28;20051;-64
2023/08/28 06:57:54;;;;;;;6.07;2.05;;;15.90;99.90;;;;;;5044039;28;20459;-64
2023/08/28 07:00:19;;;;;;;4.88;2.00;;;16.00;99.90;;;;;;5025663;28;20048;-64
2023/08/28 07:02:45;;;;;;;5.93;2.08;;;16.00;99.90;;;;;;5043428;28;20730;-62
2023/08/28 07:05:11;;;;;;;7.78;1.80;;;16.10;99.90;;;;;;5073257;28;20040;-64
2023/08/28 07:07:36;;;;;;;7.72;2.00;;;16.10;99.90;;;;;;5045932;28;20203;-66
2023/08/28 07:10:04;;;;;;;8.05;2.25;;;16.10;99.90;;;;;;5042836;28;20612;-65
2023/08/28 07:12:29;;;;;;;8.18;2.08;;;16.10;99.90;;;;;;5064143;28;20087;-67
2023/08/28 07:15:13;;;;;;;6.05;1.80;;;16.10;99.90;;;;;;5061577;28;20080;-63
2023/08/28 07:17:39;;;;;;;6.63;1.73;;;16.20;99.90;;;;;;5047845;28;20423;-68
2023/08/28 07:20:06;;;;;;;8.23;1.92;;;16.30;99.90;;;;;;5054018;28;20033;-67
2023/08/28 07:22:32;;;;;;;4.85;1.45;;;16.30;99.90;;;;;;5044235;28;20377;-63
2023/08/28 07:24:57;;;;;;;5.00;1.70;;;16.40;99.90;;;;;;5050398;28;20040;-64
2023/08/28 07:27:23;;;;;;;7.55;1.70;;;16.50;99.90;;;;;;5067187;28;20178;-62
2023/08/28 07:29:48;;;;;;;9.27;2.05;;;16.50;99.90;;;;;;5061790;28;20484;-65
2023/08/28 07:32:14;;;;;;;7.43;1.70;;;16.60;99.90;;;;;;5047168;28;20086;-64
2023/08/28 07:34:40;;;;;;;8.25;1.70;;;16.60;99.90;;;;;;5054945;28;20037;-65
2023/08/28 07:37:05;;;;;;;7.45;1.75;;;16.70;99.90;;;;;;5048492;28;20036;-67
2023/08/28 07:39:31;;;;;;;8.00;1.85;;;16.70;99.90;;;;;;5050181;28;20516;-67
2023/08/28 07:41:57;;;;;;;6.72;1.55;;;16.80;99.90;;;;;;5047137;28;20045;-64
2023/08/28 07:44:23;;;;;;;7.10;1.50;;;16.80;99.90;;;;;;5066900;28;20040;-67
2023/08/28 07:46:49;;;;;;;4.57;1.50;;;16.90;99.90;;;;;;5066866;28;20348;-66
2023/08/28 07:49:15;;;;;;;5.28;1.40;;;17.00;99.90;;;;;;5060510;28;20037;-68
2023/08/28 07:51:41;;;;;;;5.18;1.30;;;17.00;99.90;;;;;;5047970;28;20428;-64
2023/08/28 07:54:06;;;;;;;5.25;1.52;;;17.10;99.90;;;;;;5046667;28;20045;-64
2023/08/28 07:56:32;;;;;;;7.80;1.90;;;17.10;99.90;;;;;;5064815;28;20400;-63
2023/08/28 07:58:58;;;;;;;6.85;1.50;;;17.20;99.90;;;;;;5032837;28;20044;-64
2023/08/28 08:01:23;;;;;;;6.90;1.63;;;17.30;99.90;;;;;;5046624;28;20431;-64
2023/08/28 08:03:49;;;;;;;6.25;1.65;;;17.40;99.90;;;;;;5047716;28;20107;-64
2023/08/28 08:06:16;;;;;;;7.60;1.33;;;17.50;99.90;;;;;;5064405;28;20049;-66
2023/08/28 08:08:45;;;;;;;7.57;1.45;;;17.70;99.90;;;;;;5062978;28;20106;-64
2023/08/28 08:11:11;;;;;;;7.68;1.65;;;17.80;99.90;;;;;;5047953;28;20366;-66
2023/08/28 08:13:37;;;;;;;4.70;1.40;;;17.90;99.90;;;;;;5030080;28;20098;-63
2023/08/28 08:16:04;;;;;;;7.88;1.67;;;18.00;99.90;;;;;;5046639;28;20052;-65
2023/08/28 08:18:30;;;;;;;4.47;1.50;;;18.20;99.90;;;;;;5063154;28;20155;-62
2023/08/28 08:20:56;;;;;;;4.80;1.60;;;18.50;99.90;;;;;;5080071;28;20445;-66
2023/08/28 08:23:22;;;;;;;4.75;1.10;;;19.10;99.90;;;;;;5047094;28;20085;-65
2023/08/28 08:25:47;;;;;;;6.05;1.20;;;19.50;99.90;;;;;;5053715;28;20320;-65
2023/08/28 08:28:15;;;;;;;4.72;1.50;;;19.60;99.90;;;;;;5068013;28;20064;-64
2023/08/28 08:30:41;;;;;;;2.83;1.10;;;19.60;99.90;;;;;;5064839;28;20048;-63
2023/08/28 08:33:07;;;;;;;5.45;1.40;;;19.60;99.90;;;;;;5024214;28;20551;-65
2023/08/28 08:35:34;;;;;;;4.78;1.25;;;19.50;99.90;;;;;;5058519;28;20040;-68
2023/08/28 08:38:00;;;;;;;5.00;0.90;;;19.40;99.90;;;;;;5067340;28;20084;-61
2023/08/28 08:40:26;;;;;;;4.82;1.38;;;19.40;99.90;;;;;;5049017;28;20125;-63
2023/08/28 08:42:53;;;;;;;4.47;1.10;;;19.20;99.90;;;;;;5051210;28;20052;-64
2023/08/28 08:45:21;;;;;;;4.15;1.08;;;19.00;99.90;;;;;;5039600;28;20037;-63
2023/08/28 08:47:53;;;;;;;5.53;1.10;;;18.80;99.90;;;;;;5064973;28;20045;-64
2023/08/28 08:50:20;;;;;;;4.88;1.17;;;18.60;99.90;;;;;;5046508;28;20062;-64
2023/08/28 08:52:47;;;;;;;4.15;1.35;;;18.50;99.90;;;;;;5046328;28;20455;-64
2023/08/28 08:55:30;;;;;;;6.10;1.45;;;18.40;99.90;;;;;;5045080;28;20110;-66
2023/08/28 08:57:59;;;;;;;5.85;1.50;;;18.40;99.90;;;;;;5047051;28;20045;-63
2023/08/28 09:00:25;;;;;;;6.65;1.10;;;18.30;99.90;;;;;;5045980;28;20061;-63
2023/08/28 09:02:53;;;;;;;6.63;1.38;;;18.30;99.90;;;;;;5031084;28;20055;-64
2023/08/28 09:05:19;;;;;;;6.10;1.00;;;18.30;99.90;;;;;;5037079;28;20037;-66
2023/08/28 09:07:46;;;;;;;6.40;1.30;;;18.20;99.90;;;;;;5066481;28;20037;-63
2023/08/28 09:10:14;;;;;;;4.63;1.00;;;18.10;99.90;;;;;;5093770;28;20045;-64
2023/08/28 09:12:41;;;;;;;3.83;1.15;;;18.20;99.90;;;;;;5046530;28;20111;-63
2023/08/28 09:15:07;;;;;;;3.67;1.02;;;18.30;99.90;;;;;;5045322;28;20070;-63
2023/08/28 09:17:38;;;;;;;5.82;1.23;;;18.40;99.90;;;;;;5044822;28;20519;-63
2023/08/28 09:20:18;;;;;;;6.63;1.30;;;18.50;99.90;;;;;;5053849;28;20855;-66
2023/08/28 09:22:51;;;;;;;2.28;0.70;;;18.50;99.90;;;;;;5060985;28;20055;-66
2023/08/28 09:25:18;;;;;;;3.00;0.90;;;18.40;99.90;;;;;;5059618;28;20040;-65
2023/08/28 09:27:45;;;;;;;4.15;1.00;;;18.30;99.90;;;;;;5065168;28;20040;-64
2023/08/28 09:30:30;;;;;;;4.32;0.70;;;18.30;99.90;;;;;;5064885;28;20044;-63
2023/08/28 09:33:01;;;;;;;4.13;0.93;;;18.40;99.90;;;;;;5050626;28;20177;-65
2023/08/28 09:35:28;;;;;;;2.72;0.93;;;18.40;99.90;;;;;;5050495;28;20045;-66
2023/08/28 09:37:58;;;;;;;5.78;1.00;;;18.50;99.90;;;;;;5044787;28;20044;-63
2023/08/28 09:40:31;;;;;;;3.05;1.00;;;18.60;99.90;;;;;;5045444;28;20371;-67
2023/08/28 09:42:58;;;;;;;6.07;1.27;;;18.70;99.90;;;;;;5064962;28;20522;-62
2023/08/28 09:45:32;;;;;;;3.53;0.88;;;18.80;99.90;;;;;;5064865;28;20041;-65
2023/08/28 09:47:58;;;;;;;3.33;0.80;;;18.90;99.90;;;;;;5054278;28;20488;-64
2023/08/28 09:50:27;;;;;;;3.03;0.95;;;18.80;99.90;;;;;;5044428;28;20040;-66
2023/08/28 09:52:53;;;;;;;8.05;1.00;;;18.70;99.90;;;;;;5044283;28;20404;-64
2023/08/28 09:55:19;;;;;;;6.15;1.42;;;18.80;99.90;;;;;;5045097;28;20040;-62
2023/08/28 09:57:45;;;;;;;3.47;1.10;;;18.80;99.90;;;;;;5034991;28;20404;-64
2023/08/28 10:00:12;;;;;;;4.45;1.05;;;18.90;99.90;;;;;;5025944;28;20255;-63
2023/08/28 10:02:39;;;;;;;4.85;1.13;;;19.10;99.90;;;;;;5028543;28;20184;-66
2023/08/28 10:05:08;;;;;;;5.65;1.00;;;19.20;99.90;;;;;;5042001;28;20408;-61
2023/08/28 10:07:36;;;;;;;2.50;1.00;;;19.30;99.90;;;;;;5044013;28;20041;-67
2023/08/28 10:10:03;;;;;;;5.00;1.10;;;19.20;99.90;;;;;;5043042;28;20068;-63
2023/08/28 10:12:30;;;;;;;6.60;1.25;;;19.20;99.90;;;;;;5045450;28;20041;-65
2023/08/28 10:14:58;;;;;;;4.50;1.10;;;19.20;99.90;;;;;;5053793;28;20056;-65
2023/08/28 10:17:27;;;;;;;3.55;0.80;;;19.20;99.90;;;;;;5037597;28;20052;-63
2023/08/28 10:19:58;;;;;;;4.90;1.20;;;19.30;99.90;;;;;;5028051;28;20041;-64
2023/08/28 10:22:25;;;;;;;3.13;0.90;;;19.40;99.90;;;;;;5048376;28;20455;-64
2023/08/28 10:24:52;;;;;;;5.75;1.40;;;19.40;99.90;;;;;;5055054;28;20133;-65
2023/08/28 10:27:20;;;;;;;3.10;0.90;;;19.30;99.90;;;;;;5048490;28;20091;-64
2023/08/28 10:29:49;;;;;;;5.85;1.08;;;19.10;99.90;;;;;;5048302;28;20037;-65
2023/08/28 10:32:15;;;;;;;4.20;0.90;;;18.90;99.90;;;;;;5043790;28;20040;-66
2023/08/28 10:34:44;;;;;;;3.50;0.75;;;18.70;99.90;;;;;;5044599;28;20040;-65
2023/08/28 10:37:11;;;;;;;3.45;0.98;;;18.50;99.90;;;;;;5051466;28;20128;-66
2023/08/28 10:39:42;;;;;;;4.78;1.00;;;18.40;99.90;;;;;;5044752;28;20087;-66
2023/08/28 10:42:17;;;;;;;4.78;1.30;;;18.20;99.90;;;;;;5029711;28;20468;-67
2023/08/28 10:44:43;;;;;;;3.85;0.90;;;18.10;99.90;;;;;;5027609;28;20071;-67
2023/08/28 10:47:13;;;;;;;4.93;1.00;;;18.00;99.90;;;;;;5030152;28;20052;-64
2023/08/28 10:49:39;;;;;;;4.25;1.20;;;17.90;99.90;;;;;;5032230;28;20033;-63
2023/08/28 10:52:06;;;;;;;5.78;1.15;;;17.80;99.90;;;;;;5031966;28;20494;-65
2023/08/28 10:54:40;;;;;;;6.18;1.10;;;17.80;99.90;;;;;;5030109;28;20041;-66
2023/08/28 10:57:10;;;;;;;5.25;1.02;;;17.70;99.90;;;;;;5014851;28;20074;-64
2023/08/28 10:59:45;;;;;;;6.28;1.13;;;17.70;99.90;;;;;;5016384;28;20053;-65
2023/08/28 11:02:11;;;;;;;3.50;0.93;;;17.60;99.90;;;;;;5030023;28;20059;-66
2023/08/28 11:04:39;;;;;;;3.53;0.95;;;17.50;99.90;;;;;;5030450;28;20040;-66
2023/08/28 11:07:07;;;;;;;5.22;1.20;;;17.50;99.90;;;;;;5031976;28;20564;-65
2023/08/28 11:09:36;;;;;;;4.78;1.05;;;17.50;99.90;;;;;;5031806;28;20053;-65
2023/08/28 11:12:02;;;;;;;5.10;1.20;;;17.50;99.90;;;;;;5031899;28;20068;-65
2023/08/28 11:15:03;;;;;;;5.40;1.00;;;17.50;99.90;;;;;;5034545;28;20670;-65
2023/08/28 11:17:30;;;;;;;3.72;1.05;;;17.50;99.90;;;;;;4992986;28;20065;-66
2023/08/28 11:19:56;;;;;;;4.32;1.00;;;17.50;99.90;;;;;;5036818;28;20538;-65
2023/08/28 11:22:31;;;;;;;5.05;1.20;;;17.50;99.90;;;;;;5026929;28;20377;-64
2023/08/28 11:24:58;;;;;;;2.53;0.93;;;17.50;99.90;;;;;;5043656;28;20128;-64
2023/08/28 11:27:49;;;;;;;5.20;1.20;;;17.60;99.90;;;;;;5042752;28;20045;-67
2023/08/28 11:30:20;;;;;;;4.72;1.20;;;17.60;99.90;;;;;;5043507;28;20106;-67
2023/08/28 11:32:51;;;;;;;5.75;1.13;;;17.60;99.90;;;;;;5026589;28;20416;-64
2023/08/28 11:35:17;;;;;;;4.22;1.10;;;17.70;99.90;;;;;;5035109;28;20040;-65
2023/08/28 11:37:52;;;;;;;4.45;0.93;;;17.70;99.90;;;;;;5064855;28;20037;-65
2023/08/28 11:40:19;;;;;;;2.83;1.00;;;17.80;99.90;;;;;;5063546;28;20040;-63
2023/08/28 11:42:47;;;;;;;3.60;1.00;;;17.80;99.90;;;;;;5059990;28;20080;-65
2023/08/28 11:45:21;;;;;;;3.00;1.00;;;17.90;99.90;;;;;;5044691;28;20266;-65
2023/08/28 11:47:47;;;;;;;4.55;0.88;;;18.00;99.90;;;;;;5059163;28;20048;-65
2023/08/28 11:50:13;;;;;;;3.38;1.10;;;18.10;99.90;;;;;;5051422;28;20071;-64
2023/08/28 11:52:39;;;;;;;4.03;1.10;;;18.20;99.90;;;;;;5023307;28;20061;-63
2023/08/28 11:55:06;;;;;;;4.38;1.02;;;18.30;99.90;;;;;;5022998;28;20112;-65
2023/08/28 11:57:33;;;;;;;3.20;0.90;;;18.40;99.90;;;;;;5030639;28;20528;-64
2023/08/28 12:00:01;;;;;;;3.38;0.80;;;18.40;99.90;;;;;;5051350;28;20032;-64
2023/08/28 12:02:28;;;;;;;4.45;0.90;;;18.50;99.90;;;;;;5066382;28;20411;-63
2023/08/28 12:04:54;;;;;;;3.92;0.80;;;18.60;99.90;;;;;;5058123;28;20085;-64
2023/08/28 12:07:22;;;;;;;3.30;0.98;;;18.90;99.90;;;;;;5047877;28;20137;-63
2023/08/28 12:09:48;;;;;;;3.95;0.90;;;19.10;99.90;;;;;;5047685;28;20051;-64
2023/08/28 12:12:15;;;;;;;6.15;1.20;;;19.20;99.90;;;;;;5048923;28;20041;-65
2023/08/28 12:14:44;;;;;;;3.38;0.80;;;19.30;99.90;;;;;;5066554;28;20040;-64
2023/08/28 12:17:17;;;;;;;4.72;1.25;;;19.40;99.90;;;;;;5066610;28;20048;-62
2023/08/28 12:19:43;;;;;;;2.30;0.80;;;19.40;99.90;;;;;;5064778;28;20182;-63
2023/08/28 12:22:10;;;;;;;6.43;1.00;;;19.40;99.90;;;;;;5066281;28;20580;-62
2023/08/28 12:24:41;;;;;;;4.40;1.17;;;19.50;99.90;;;;;;5067536;28;20858;-61
2023/08/28 12:27:10;;;;;;;6.85;0.98;;;19.60;99.90;;;;;;5066282;28;20129;-64
2023/08/28 12:29:37;;;;;;;6.10;1.10;;;19.60;99.90;;;;;;5067495;28;20045;-63
2023/08/28 12:32:06;;;;;;;5.18;1.00;;;19.60;99.90;;;;;;5093611;28;20041;-64
2023/08/28 12:34:33;;;;;;;2.55;0.85;;;19.60;99.90;;;;;;5045731;28;20053;-63
2023/08/28 12:37:11;;;;;;;4.45;0.90;;;19.60;99.90;;;;;;5062335;28;20892;-62
2023/08/28 12:39:50;;;;;;;3.30;0.90;;;19.50;99.90;;;;;;5060910;28;20037;-64
2023/08/28 12:42:20;;;;;;;4.38;0.80;;;19.50;99.90;;;;;;5047485;28;20047;-63
2023/08/28 12:44:47;;;;;;;3.17;0.90;;;19.40;99.90;;;;;;5079948;28;20060;-63
2023/08/28 12:47:14;;;;;;;3.00;0.80;;;19.20;99.90;;;;;;5049018;28;20063;-65